Time;durP1;ratioP1;P1;durP2;ratioP2;P2;SDS_P1;SDS_P2;PMS_P1;PMS_P2;Temp;Humidity;BMP_temperature;BMP_pressure;BME280_temperature;BME280_humidity;BME280_pressure;Samples;Min_cycle;Max_cycle;Signal;HPM_P1;HPM_P2
2023/02/15 00:01:40;;;;;;;52.45;33.42;;;2.90;99.90;;;;;;5019356;28;20594;-44
2023/02/15 00:04:07;;;;;;;52.85;33.95;;;2.90;99.90;;;;;;5019840;28;20541;-44
2023/02/15 00:06:33;;;;;;;53.15;33.33;;;2.80;99.90;;;;;;5019277;28;20267;-44
2023/02/15 00:09:00;;;;;;;55.30;34.92;;;2.80;99.90;;;;;;5019274;28;20181;-45
2023/02/15 00:11:42;;;;;;;52.53;33.10;;;2.80;99.90;;;;;;5021586;28;20749;-48
2023/02/15 00:14:12;;;;;;;61.63;35.15;;;2.80;99.90;;;;;;5022055;28;20449;-46
2023/02/15 00:16:40;;;;;;;50.65;33.63;;;2.80;99.90;;;;;;5023380;28;20216;-44
2023/02/15 00:19:07;;;;;;;57.58;34.78;;;2.80;99.90;;;;;;5022386;28;20187;-45
2023/02/15 00:21:34;;;;;;;50.22;33.45;;;2.80;99.90;;;;;;5023456;28;20198;-42
2023/02/15 00:24:01;;;;;;;53.30;33.67;;;2.80;99.90;;;;;;5022744;28;20277;-45
2023/02/15 00:26:27;;;;;;;49.70;33.47;;;2.80;99.90;;;;;;5023020;28;20953;-44
2023/02/15 00:28:54;;;;;;;52.25;34.17;;;2.80;99.90;;;;;;5023248;28;20474;-43
2023/02/15 00:31:20;;;;;;;54.90;34.17;;;2.80;99.90;;;;;;5023184;28;20969;-44
2023/02/15 00:33:46;;;;;;;52.90;34.05;;;2.70;99.90;;;;;;5022915;28;20712;-44
2023/02/15 00:36:12;;;;;;;50.67;34.57;;;2.70;99.90;;;;;;5023201;28;20215;-42
2023/02/15 00:38:38;;;;;;;53.28;34.30;;;2.70;99.90;;;;;;5022727;28;20189;-43
2023/02/15 00:41:05;;;;;;;56.87;36.00;;;2.70;99.90;;;;;;5023149;28;20648;-43
2023/02/15 00:43:32;;;;;;;53.63;33.90;;;2.70;99.90;;;;;;5022730;28;20427;-45
2023/02/15 00:45:59;;;;;;;57.10;34.33;;;2.70;99.90;;;;;;5022867;28;20217;-45
2023/02/15 00:48:24;;;;;;;56.08;34.63;;;2.60;99.90;;;;;;5021933;28;20190;-46
2023/02/15 00:50:55;;;;;;;55.50;34.50;;;2.60;99.90;;;;;;5022679;28;20264;-42
2023/02/15 00:53:21;;;;;;;52.80;33.80;;;2.60;99.90;;;;;;5022011;28;20434;-44
2023/02/15 00:55:47;;;;;;;47.47;32.80;;;2.60;99.90;;;;;;5022725;28;20189;-44
2023/02/15 00:58:13;;;;;;;50.10;32.53;;;2.60;99.90;;;;;;5022236;28;20885;-42
2023/02/15 01:00:42;;;;;;;56.10;35.38;;;2.50;99.90;;;;;;5022806;28;20190;-44
2023/02/15 01:03:07;;;;;;;56.28;35.00;;;2.60;99.90;;;;;;5022113;28;20196;-41
2023/02/15 01:05:33;;;;;;;52.90;33.80;;;2.50;99.90;;;;;;5022330;28;20674;-43
2023/02/15 01:07:59;;;;;;;54.60;33.50;;;2.60;99.90;;;;;;5022195;28;20318;-41
2023/02/15 01:10:27;;;;;;;54.97;33.88;;;2.60;99.90;;;;;;5022371;28;20194;-44
2023/02/15 01:12:53;;;;;;;56.42;33.30;;;2.60;99.90;;;;;;5022267;28;20232;-41
2023/02/15 01:15:19;;;;;;;49.58;33.28;;;2.60;99.90;;;;;;5022596;28;20765;-42
2023/02/15 01:17:51;;;;;;;52.92;33.30;;;2.60;99.90;;;;;;5021710;28;20241;-44
2023/02/15 01:20:17;;;;;;;57.63;35.78;;;2.60;99.90;;;;;;5021867;28;20201;-46
2023/02/15 01:22:43;;;;;;;54.22;35.63;;;2.50;99.90;;;;;;5021956;28;20215;-43
2023/02/15 01:25:08;;;;;;;54.97;34.20;;;2.50;99.90;;;;;;5021752;28;20679;-43
2023/02/15 01:27:34;;;;;;;50.23;33.43;;;2.50;99.90;;;;;;5022094;28;20189;-43
2023/02/15 01:29:59;;;;;;;55.27;33.50;;;2.50;99.90;;;;;;5021984;28;20569;-45
2023/02/15 01:32:26;;;;;;;54.83;34.33;;;2.50;99.90;;;;;;5022389;28;20542;-43
2023/02/15 01:34:52;;;;;;;51.60;33.35;;;2.50;99.90;;;;;;5021922;28;20615;-44
2023/02/15 01:37:18;;;;;;;49.45;33.28;;;2.50;99.90;;;;;;5021883;28;20185;-43
2023/02/15 01:39:44;;;;;;;52.77;32.80;;;2.50;99.90;;;;;;5021702;28;20232;-43
2023/02/15 01:42:11;;;;;;;53.70;34.07;;;2.50;99.90;;;;;;5022134;28;20415;-46
2023/02/15 01:44:51;;;;;;;50.30;33.30;;;2.50;99.90;;;;;;5021861;28;20194;-46
2023/02/15 01:47:32;;;;;;;53.60;34.72;;;2.40;99.90;;;;;;5020765;28;20195;-42
2023/02/15 01:50:36;;;;;;;53.78;32.72;;;2.40;99.90;;;;;;5021498;28;20189;-46
2023/02/15 01:53:05;;;;;;;55.70;33.42;;;2.40;99.90;;;;;;5020860;28;20494;-43
2023/02/15 01:55:36;;;;;;;56.97;32.50;;;2.30;99.90;;;;;;5021678;28;20185;-42
2023/02/15 01:58:02;;;;;;;49.42;33.95;;;2.30;99.90;;;;;;5021682;28;20188;-44
2023/02/15 02:00:28;;;;;;;53.17;33.80;;;2.30;99.90;;;;;;5020286;28;20186;-42
2023/02/15 02:02:56;;;;;;;50.97;33.97;;;2.30;99.90;;;;;;5020187;28;20197;-42
2023/02/15 02:05:22;;;;;;;52.05;32.72;;;2.30;99.90;;;;;;5021273;28;20320;-43
2023/02/15 02:07:51;;;;;;;49.63;32.27;;;2.30;99.90;;;;;;5021597;28;20576;-43
2023/02/15 02:10:20;;;;;;;62.38;35.30;;;2.30;99.90;;;;;;5021939;28;21123;-42
2023/02/15 02:12:49;;;;;;;55.95;33.70;;;2.30;99.90;;;;;;5020857;28;20597;-44
2023/02/15 02:15:15;;;;;;;50.72;31.83;;;2.30;99.90;;;;;;5020019;28;20552;-42
2023/02/15 02:18:08;;;;;;;50.78;32.60;;;2.30;99.90;;;;;;5020936;28;20671;-47
2023/02/15 02:20:59;;;;;;;51.00;32.03;;;2.30;99.90;;;;;;5021090;28;20182;-46
2023/02/15 02:23:47;;;;;;;52.97;31.50;;;2.30;99.90;;;;;;5020738;28;20178;-43
2023/02/15 02:26:13;;;;;;;52.72;30.52;;;2.30;99.90;;;;;;5021410;28;20221;-45
2023/02/15 02:29:03;;;;;;;49.40;32.30;;;2.30;99.90;;;;;;5020109;28;20231;-42
2023/02/15 02:31:53;;;;;;;51.53;31.13;;;2.30;99.90;;;;;;5020973;28;20182;-43
2023/02/15 02:34:21;;;;;;;54.13;32.85;;;2.30;99.90;;;;;;5020540;28;20184;-44
2023/02/15 02:36:54;;;;;;;49.17;31.50;;;2.20;99.90;;;;;;5021166;28;20201;-42
2023/02/15 02:39:29;;;;;;;49.78;32.17;;;2.20;99.90;;;;;;5020936;28;20719;-43
2023/02/15 02:42:16;;;;;;;47.60;30.90;;;2.20;99.90;;;;;;5020434;28;20216;-43
2023/02/15 02:44:46;;;;;;;49.83;30.58;;;2.20;99.90;;;;;;5020809;28;20546;-42
2023/02/15 02:47:19;;;;;;;50.83;31.67;;;2.30;99.90;;;;;;5020621;28;20208;-43
2023/02/15 02:49:45;;;;;;;46.83;30.48;;;2.20;99.90;;;;;;5020644;28;20177;-43
2023/02/15 02:52:46;;;;;;;48.00;29.87;;;2.20;99.90;;;;;;5020501;28;20181;-49
2023/02/15 02:55:23;;;;;;;43.83;28.95;;;2.20;99.90;;;;;;5020364;28;20183;-42
2023/02/15 02:57:51;;;;;;;53.65;32.03;;;2.20;99.90;;;;;;5019257;28;20181;-46
2023/02/15 03:00:19;;;;;;;45.10;29.60;;;2.10;99.90;;;;;;5020609;28;20185;-46
2023/02/15 03:02:48;;;;;;;46.55;30.80;;;2.10;99.90;;;;;;5020523;28;20201;-44
2023/02/15 03:05:19;;;;;;;46.30;29.63;;;2.10;99.90;;;;;;5020065;28;20374;-46
2023/02/15 03:07:50;;;;;;;47.60;30.63;;;2.10;99.90;;;;;;5019438;28;20751;-45
2023/02/15 03:10:17;;;;;;;42.20;29.92;;;2.00;99.90;;;;;;5019070;28;20224;-46
2023/02/15 03:12:43;;;;;;;40.88;28.63;;;2.00;99.90;;;;;;5019826;28;20242;-48
2023/02/15 03:15:24;;;;;;;46.80;29.83;;;2.10;99.90;;;;;;5020243;28;20188;-47
2023/02/15 03:17:57;;;;;;;44.92;29.25;;;2.00;99.90;;;;;;5020156;28;20532;-43
2023/02/15 03:20:28;;;;;;;37.17;26.45;;;2.00;99.90;;;;;;5019893;28;20652;-45
2023/02/15 03:23:21;;;;;;;46.83;29.55;;;2.00;99.90;;;;;;5017433;28;20193;-44
2023/02/15 03:25:52;;;;;;;39.35;28.15;;;2.00;99.90;;;;;;5018576;28;20333;-45
2023/02/15 03:28:27;;;;;;;46.67;28.52;;;2.00;99.90;;;;;;5020053;28;20256;-43
2023/02/15 03:30:56;;;;;;;43.92;27.33;;;2.00;99.90;;;;;;5020348;28;20189;-43
2023/02/15 03:33:23;;;;;;;39.35;28.13;;;2.00;99.90;;;;;;5020097;28;20194;-44
2023/02/15 03:36:21;;;;;;;42.97;28.25;;;2.00;99.90;;;;;;5019704;28;20361;-43
2023/02/15 03:39:12;;;;;;;40.90;27.98;;;2.00;99.90;;;;;;5018570;28;20217;-44
2023/02/15 03:41:48;;;;;;;38.13;26.63;;;2.00;99.90;;;;;;5018900;28;20998;-44
2023/02/15 03:44:23;;;;;;;37.65;27.23;;;2.00;99.90;;;;;;5019555;28;20260;-44
2023/02/15 03:46:53;;;;;;;39.00;27.38;;;1.90;99.90;;;;;;5018950;28;20724;-43
2023/02/15 03:49:28;;;;;;;42.45;27.00;;;1.90;99.90;;;;;;5019779;28;20193;-43
2023/02/15 03:51:57;;;;;;;38.63;26.55;;;1.90;99.90;;;;;;5019605;28;20216;-43
2023/02/15 03:54:47;;;;;;;39.75;27.88;;;1.90;99.90;;;;;;5019922;28;20178;-47
2023/02/15 04:03:22;;;;;;;37.13;26.73;;;1.90;99.90;;;;;;5019981;28;20282;-46
2023/02/15 04:05:47;;;;;;;32.90;24.55;;;1.90;99.90;;;;;;5019524;28;20257;-42
2023/02/15 04:08:13;;;;;;;33.80;25.27;;;1.80;99.90;;;;;;5019529;28;20189;-46
2023/02/15 04:10:55;;;;;;;35.43;25.00;;;1.80;99.90;;;;;;5019606;28;20177;-44
2023/02/15 04:13:30;;;;;;;33.53;24.90;;;1.80;99.90;;;;;;5019074;28;20229;-45
2023/02/15 04:16:05;;;;;;;34.33;24.55;;;1.90;99.90;;;;;;5019338;28;20189;-43
2023/02/15 04:26:43;;;;;;;34.40;24.20;;;1.90;99.90;;;;;;5018052;28;20570;-42
2023/02/15 04:29:09;;;;;;;34.53;24.87;;;1.90;99.90;;;;;;5019593;28;20185;-47
2023/02/15 04:31:35;;;;;;;35.17;25.03;;;1.90;99.90;;;;;;5017871;28;20189;-48
2023/02/15 04:34:00;;;;;;;32.30;23.73;;;1.90;99.90;;;;;;5019220;28;20273;-47
2023/02/15 04:36:26;;;;;;;39.27;25.20;;;1.90;99.90;;;;;;5017067;28;20201;-44
2023/02/15 04:38:51;;;;;;;35.63;24.40;;;1.90;99.90;;;;;;5018152;28;20685;-46
2023/02/15 04:41:17;;;;;;;39.77;26.10;;;1.90;99.90;;;;;;5019014;28;20190;-50
2023/02/15 04:43:43;;;;;;;36.93;25.73;;;1.90;99.90;;;;;;5018766;28;20215;-46
2023/02/15 04:46:08;;;;;;;38.23;25.47;;;1.90;99.90;;;;;;5018736;28;20212;-46
2023/02/15 04:48:34;;;;;;;37.70;25.63;;;1.80;99.90;;;;;;5018195;28;20198;-46
2023/02/15 04:51:05;;;;;;;39.73;25.83;;;1.80;99.90;;;;;;5018990;28;20663;-44
2023/02/15 04:53:31;;;;;;;37.70;25.02;;;1.80;99.90;;;;;;5018692;28;20189;-52
2023/02/15 04:55:56;;;;;;;38.70;24.80;;;1.80;99.90;;;;;;5018092;28;20184;-49
2023/02/15 04:58:22;;;;;;;35.50;24.70;;;1.90;99.90;;;;;;5020440;28;20542;-47
2023/02/15 05:00:48;;;;;;;36.07;24.50;;;1.80;99.90;;;;;;5021465;28;20189;-46
2023/02/15 05:03:13;;;;;;;33.70;24.50;;;1.80;99.90;;;;;;5022485;28;20197;-44
2023/02/15 05:05:40;;;;;;;39.00;25.13;;;1.80;99.90;;;;;;5021915;28;20209;-47
2023/02/15 05:08:05;;;;;;;32.50;23.67;;;1.80;99.90;;;;;;5020901;28;20188;-46
2023/02/15 05:10:31;;;;;;;36.90;25.83;;;1.70;99.90;;;;;;5022124;28;20194;-48
2023/02/15 05:12:57;;;;;;;35.90;23.67;;;1.70;99.90;;;;;;5022318;28;20229;-46
2023/02/15 05:15:22;;;;;;;37.67;25.00;;;1.70;99.90;;;;;;5022321;28;20192;-44
2023/02/15 05:17:48;;;;;;;33.47;23.30;;;1.70;99.90;;;;;;5023269;28;20260;-46
2023/02/15 05:20:14;;;;;;;41.10;26.00;;;1.80;99.90;;;;;;5023150;28;20181;-47
2023/02/15 05:22:40;;;;;;;40.13;25.00;;;1.80;99.90;;;;;;5023124;28;20195;-49
2023/02/15 05:30:36;;;;;;;37.03;26.10;;;1.80;99.90;;;;;;5023442;28;20180;-48
2023/02/15 05:33:01;;;;;;;32.73;23.50;;;1.80;99.90;;;;;;5022989;28;21133;-44
2023/02/15 05:35:27;;;;;;;34.73;25.20;;;1.80;99.90;;;;;;5023000;28;20189;-45
2023/02/15 05:37:53;;;;;;;38.77;27.30;;;1.80;99.90;;;;;;5023200;28;20188;-48
2023/02/15 05:40:18;;;;;;;34.17;24.17;;;1.80;99.90;;;;;;5022279;28;20969;-47
2023/02/15 05:42:44;;;;;;;32.70;25.07;;;1.80;99.90;;;;;;5021722;28;20189;-53
2023/02/15 05:45:09;;;;;;;32.97;24.13;;;1.70;99.90;;;;;;5022298;28;20189;-47
2023/02/15 05:47:35;;;;;;;33.63;25.03;;;1.70;99.90;;;;;;5021786;28;20199;-51
2023/02/15 05:50:01;;;;;;;33.23;23.40;;;1.70;99.90;;;;;;5022103;28;20180;-43
2023/02/15 05:52:26;;;;;;;34.37;24.80;;;1.60;99.90;;;;;;5021714;28;20294;-45
2023/02/15 05:54:52;;;;;;;32.70;25.20;;;1.60;99.90;;;;;;5021727;28;20189;-46
2023/02/15 05:57:17;;;;;;;32.70;25.07;;;1.70;99.90;;;;;;5021402;28;20196;-46
2023/02/15 05:59:43;;;;;;;36.43;25.27;;;1.60;99.90;;;;;;5021869;28;20656;-45
2023/02/15 06:02:08;;;;;;;35.57;24.50;;;1.60;99.90;;;;;;5020298;28;20189;-47
2023/02/15 06:04:34;;;;;;;32.43;24.03;;;1.60;99.90;;;;;;5021497;28;20189;-45
2023/02/15 06:07:00;;;;;;;31.70;24.63;;;1.60;99.90;;;;;;5021018;28;20215;-47
2023/02/15 06:09:25;;;;;;;32.57;22.83;;;1.60;99.90;;;;;;5020714;28;21231;-45
2023/02/15 06:11:51;;;;;;;35.20;25.73;;;1.60;99.90;;;;;;5021158;28;20235;-44
2023/02/15 06:14:16;;;;;;;33.60;24.60;;;1.60;99.90;;;;;;5018952;28;20327;-47
2023/02/15 06:16:42;;;;;;;37.47;24.13;;;1.60;99.90;;;;;;5021229;28;20282;-46
2023/02/15 06:19:08;;;;;;;33.63;25.90;;;1.50;99.90;;;;;;5021219;28;20265;-45
2023/02/15 06:21:33;;;;;;;33.67;26.10;;;1.50;99.90;;;;;;5021304;28;20245;-47
2023/02/15 06:23:59;;;;;;;33.00;23.73;;;1.50;99.90;;;;;;5020792;28;20528;-44
2023/02/15 06:26:24;;;;;;;35.30;25.20;;;1.50;99.90;;;;;;5020936;28;20208;-49
2023/02/15 06:28:50;;;;;;;34.60;24.13;;;1.50;99.90;;;;;;5020363;28;20378;-46
2023/02/15 06:31:16;;;;;;;34.07;25.27;;;1.50;99.90;;;;;;5020793;28;20193;-45
2023/02/15 06:33:41;;;;;;;32.20;23.53;;;1.60;99.90;;;;;;5021036;28;20235;-49
2023/02/15 06:36:07;;;;;;;35.03;24.97;;;1.50;99.90;;;;;;5020561;28;20212;-43
2023/02/15 06:38:32;;;;;;;34.93;23.93;;;1.50;99.90;;;;;;5020807;28;20588;-46
2023/02/15 06:40:58;;;;;;;34.63;25.77;;;1.50;99.90;;;;;;5020881;28;20603;-45
2023/02/15 06:43:26;;;;;;;32.33;22.70;;;1.50;99.90;;;;;;5019146;28;20183;-43
2023/02/15 06:45:52;;;;;;;30.70;22.10;;;1.50;99.90;;;;;;5018808;28;20733;-45
2023/02/15 06:48:18;;;;;;;29.90;22.20;;;1.60;99.90;;;;;;5019222;28;20266;-46
2023/02/15 06:50:43;;;;;;;31.60;23.57;;;1.60;99.90;;;;;;5019131;28;20235;-41
2023/02/15 06:53:09;;;;;;;29.90;21.83;;;1.60;99.90;;;;;;5017134;28;20204;-45
2023/02/15 06:55:34;;;;;;;32.23;23.17;;;1.60;99.90;;;;;;5020498;28;20193;-41
2023/02/15 06:58:00;;;;;;;31.90;20.83;;;1.60;99.90;;;;;;5020386;28;20199;-43
2023/02/15 07:00:26;;;;;;;31.07;21.07;;;1.70;99.90;;;;;;5020191;28;20197;-45
2023/02/15 07:02:55;;;;;;;31.90;22.97;;;1.70;99.90;;;;;;5020759;28;20609;-43
2023/02/15 07:05:22;;;;;;;25.95;21.15;;;1.70;99.90;;;;;;5020229;28;20294;-43
2023/02/15 07:07:48;;;;;;;29.63;20.20;;;1.70;99.90;;;;;;5019390;28;20180;-45
2023/02/15 07:10:13;;;;;;;28.07;20.93;;;1.80;99.90;;;;;;5020380;28;20185;-43
2023/02/15 07:12:42;;;;;;;27.20;21.47;;;1.80;99.90;;;;;;5020264;28;20236;-45
2023/02/15 07:15:16;;;;;;;28.55;21.75;;;1.80;99.90;;;;;;5018610;28;20308;-47
2023/02/15 07:17:42;;;;;;;27.95;21.67;;;1.80;99.90;;;;;;5019779;28;20181;-44
2023/02/15 07:20:14;;;;;;;27.13;20.48;;;1.80;99.90;;;;;;5020017;28;20199;-49
2023/02/15 07:22:40;;;;;;;31.50;22.17;;;1.90;99.90;;;;;;5019999;28;20189;-45
2023/02/15 07:25:08;;;;;;;28.00;20.97;;;1.90;99.90;;;;;;5018990;28;20759;-44
2023/02/15 07:27:34;;;;;;;26.52;21.15;;;1.90;99.90;;;;;;5017705;28;20246;-46
2023/02/15 07:30:00;;;;;;;26.83;20.33;;;2.00;99.90;;;;;;5019366;28;20189;-46
2023/02/15 07:32:32;;;;;;;23.38;19.80;;;2.10;99.90;;;;;;5020005;28;20194;-44
2023/02/15 07:34:59;;;;;;;27.02;20.42;;;2.10;99.90;;;;;;5019831;28;20188;-41
2023/02/15 07:37:26;;;;;;;24.75;20.73;;;2.10;99.90;;;;;;5019618;28;20182;-41
2023/02/15 07:39:51;;;;;;;23.65;20.15;;;2.20;99.90;;;;;;5019916;28;20426;-42
2023/02/15 07:42:19;;;;;;;24.23;20.00;;;2.20;99.90;;;;;;5019605;28;20660;-42
2023/02/15 07:44:45;;;;;;;26.70;21.73;;;2.30;99.90;;;;;;5020046;28;20280;-46
2023/02/15 07:47:11;;;;;;;23.20;20.43;;;2.30;99.90;;;;;;5019249;28;20650;-43
2023/02/15 07:49:38;;;;;;;25.77;20.45;;;2.40;99.90;;;;;;5019765;28;20185;-42
2023/02/15 07:52:03;;;;;;;22.70;19.55;;;2.50;99.90;;;;;;5020014;28;20976;-42
2023/02/15 07:54:29;;;;;;;21.63;19.33;;;2.50;99.90;;;;;;5018449;28;20187;-42
2023/02/15 07:56:55;;;;;;;23.10;19.20;;;2.50;99.90;;;;;;5019464;28;21042;-44
2023/02/15 07:59:20;;;;;;;22.33;19.97;;;2.70;99.90;;;;;;5019354;28;21051;-44
2023/02/15 08:01:46;;;;;;;23.97;19.67;;;2.70;99.90;;;;;;5019484;28;20185;-41
2023/02/15 08:04:12;;;;;;;24.50;20.60;;;2.90;99.90;;;;;;5019588;28;20226;-44
2023/02/15 08:06:38;;;;;;;22.23;19.93;;;3.00;99.90;;;;;;5019643;28;20201;-42
2023/02/15 08:09:06;;;;;;;22.77;20.48;;;2.80;99.90;;;;;;5019631;28;20691;-43
2023/02/15 08:11:36;;;;;;;23.45;20.95;;;3.40;99.90;;;;;;5018828;28;20574;-41
2023/02/15 08:14:13;;;;;;;21.35;19.25;;;3.60;99.90;;;;;;5019528;28;20647;-46
2023/02/15 08:16:41;;;;;;;22.23;19.90;;;4.00;99.90;;;;;;5019228;28;20268;-47
2023/02/15 08:19:11;;;;;;;20.88;18.75;;;4.40;99.90;;;;;;5019316;28;20305;-44
2023/02/15 08:21:39;;;;;;;21.08;18.90;;;4.90;99.90;;;;;;5019806;28;20475;-45
2023/02/15 08:24:07;;;;;;;19.05;17.23;;;5.30;99.90;;;;;;5017789;28;20396;-43
2023/02/15 08:26:33;;;;;;;19.67;17.83;;;5.60;99.90;;;;;;5019267;28;20301;-49
2023/02/15 08:29:00;;;;;;;20.88;19.08;;;6.10;99.90;;;;;;5019030;28;20183;-44
2023/02/15 08:31:27;;;;;;;18.63;16.92;;;6.40;99.90;;;;;;5019640;28;20183;-45
2023/02/15 08:33:54;;;;;;;19.67;17.75;;;6.70;99.90;;;;;;5023276;28;20728;-45
2023/02/15 08:36:22;;;;;;;19.20;17.50;;;7.00;99.90;;;;;;5023500;28;20629;-44
2023/02/15 08:38:48;;;;;;;19.63;17.87;;;7.20;99.90;;;;;;5022925;28;20416;-46
2023/02/15 08:41:23;;;;;;;19.97;18.27;;;7.20;99.90;;;;;;5023177;28;21237;-44
2023/02/15 08:43:52;;;;;;;21.20;19.27;;;7.40;99.90;;;;;;5023226;28;20863;-42
2023/02/15 08:46:18;;;;;;;19.80;18.00;;;7.60;99.90;;;;;;5021888;28;20460;-46
2023/02/15 08:48:44;;;;;;;18.90;17.10;;;7.90;99.90;;;;;;5022737;28;20854;-44
2023/02/15 08:51:16;;;;;;;18.83;17.20;;;8.30;99.90;;;;;;5022978;28;20918;-44
2023/02/15 08:53:44;;;;;;;19.23;17.50;;;8.60;99.90;;;;;;5022790;28;21108;-43
2023/02/15 08:56:10;;;;;;;21.13;19.17;;;8.80;99.90;;;;;;5023442;28;20416;-47
2023/02/15 08:58:36;;;;;;;19.60;18.00;;;9.10;99.90;;;;;;5022549;28;20426;-43
2023/02/15 09:01:09;;;;;;;19.80;18.10;;;9.60;99.10;;;;;;5022554;28;20445;-45
2023/02/15 09:03:35;;;;;;;21.03;19.03;;;9.70;98.10;;;;;;5022410;28;20413;-44
2023/02/15 09:06:01;;;;;;;21.03;19.13;;;10.10;95.10;;;;;;5021635;28;20472;-45
2023/02/15 09:08:28;;;;;;;20.77;18.90;;;9.90;94.30;;;;;;5022033;28;20188;-43
2023/02/15 09:10:53;;;;;;;21.37;19.47;;;9.90;95.90;;;;;;5022237;28;20501;-43
2023/02/15 09:13:20;;;;;;;22.87;20.77;;;10.40;93.80;;;;;;5021998;28;20516;-46
2023/02/15 09:15:46;;;;;;;20.93;19.10;;;10.70;91.90;;;;;;5022564;28;20282;-44
2023/02/15 09:18:16;;;;;;;22.30;20.30;;;10.90;91.30;;;;;;5022054;28;20508;-48
2023/02/15 09:20:43;;;;;;;20.97;19.00;;;10.70;88.10;;;;;;5020930;28;20948;-43
2023/02/15 09:23:08;;;;;;;21.20;19.40;;;11.00;87.90;;;;;;5021930;28;20413;-44
2023/02/15 09:25:34;;;;;;;22.10;20.10;;;11.50;86.70;;;;;;5022399;28;20777;-45
2023/02/15 09:28:00;;;;;;;20.70;18.90;;;11.20;83.80;;;;;;5021742;28;20435;-47
2023/02/15 09:30:25;;;;;;;22.60;20.57;;;11.30;85.00;;;;;;5022051;28;20914;-46
2023/02/15 09:32:51;;;;;;;20.40;18.60;;;11.70;84.70;;;;;;5021815;28;20190;-42
2023/02/15 09:35:17;;;;;;;22.40;20.43;;;12.00;82.80;;;;;;5020059;28;20178;-44
2023/02/15 09:37:42;;;;;;;22.80;20.70;;;12.00;78.90;;;;;;5022039;28;20194;-45
2023/02/15 09:40:08;;;;;;;22.90;20.80;;;12.40;75.50;;;;;;5021771;28;20550;-43
2023/02/15 09:43:17;;;;;;;21.60;19.60;;;12.40;74.80;;;;;;5021867;28;20175;-42
2023/02/15 09:46:05;;;;;;;23.13;21.13;;;12.70;74.30;;;;;;5002282;28;20480;-45
2023/02/15 09:48:42;;;;;;;24.20;22.00;;;12.60;69.00;;;;;;5022040;28;20413;-46
2023/02/15 09:51:27;;;;;;;23.40;21.30;;;12.70;69.60;;;;;;5022126;28;20463;-46
2023/02/15 09:54:08;;;;;;;23.43;21.20;;;13.00;70.00;;;;;;5021429;28;20422;-42
2023/02/15 09:56:45;;;;;;;23.43;21.30;;;13.00;68.20;;;;;;5020515;28;20421;-46
2023/02/15 09:59:31;;;;;;;24.40;22.20;;;13.10;66.00;;;;;;5021334;28;20413;-48
2023/02/15 10:02:10;;;;;;;24.80;22.60;;;13.30;66.70;;;;;;5021335;28;20783;-46
2023/02/15 10:04:35;;;;;;;23.60;21.47;;;13.10;66.90;;;;;;5020593;28;20427;-43
2023/02/15 10:07:21;;;;;;;25.27;22.80;;;13.00;66.60;;;;;;5020654;28;20901;-43
2023/02/15 10:10:02;;;;;;;25.20;22.83;;;13.40;69.60;;;;;;5021193;28;20525;-42
2023/02/15 10:12:37;;;;;;;24.97;22.57;;;14.00;63.90;;;;;;5021133;28;20461;-46
2023/02/15 10:15:15;;;;;;;25.70;23.30;;;14.20;62.90;;;;;;5021317;28;21192;-43
2023/02/15 10:18:05;;;;;;;26.17;23.77;;;14.60;58.90;;;;;;5021466;28;21158;-44
2023/02/15 10:21:20;;;;;;;26.40;24.00;;;14.60;57.90;;;;;;5021268;28;20599;-48
2023/02/15 10:23:57;;;;;;;25.80;23.40;;;14.80;56.90;;;;;;4979695;28;20530;-46
2023/02/15 10:26:30;;;;;;;27.00;24.50;;;15.00;55.70;;;;;;4980723;28;20498;-43
2023/02/15 10:29:16;;;;;;;26.37;23.93;;;15.00;56.80;;;;;;5010634;28;20457;-43
2023/02/15 10:32:16;;;;;;;24.37;22.30;;;15.00;55.20;;;;;;5021266;28;20413;-48
2023/02/15 10:35:10;;;;;;;26.67;24.17;;;15.20;55.80;;;;;;5018767;28;20449;-48
2023/02/15 10:37:58;;;;;;;26.37;24.07;;;15.50;53.90;;;;;;5020808;28;20437;-46
2023/02/15 10:40:34;;;;;;;26.27;23.87;;;15.30;52.20;;;;;;5020967;28;20413;-44
2023/02/15 10:43:11;;;;;;;24.90;22.63;;;15.40;52.20;;;;;;5020850;28;20503;-43
2023/02/15 10:45:56;;;;;;;24.27;22.17;;;15.30;52.40;;;;;;5020479;28;20499;-44
2023/02/15 10:48:40;;;;;;;24.53;22.33;;;15.80;53.50;;;;;;5020855;28;20417;-46
2023/02/15 10:51:13;;;;;;;23.77;21.67;;;15.70;51.70;;;;;;5020448;28;20480;-45
2023/02/15 10:54:06;;;;;;;24.27;22.27;;;15.80;52.00;;;;;;5020544;28;20413;-44
2023/02/15 10:56:41;;;;;;;23.73;21.63;;;15.90;51.10;;;;;;5020305;28;20833;-46
2023/02/15 10:59:55;;;;;;;25.50;23.17;;;16.00;51.00;;;;;;5020729;28;20751;-47
2023/02/15 11:02:42;;;;;;;23.63;21.43;;;16.20;49.40;;;;;;5016954;28;20552;-46
2023/02/15 11:05:32;;;;;;;24.73;22.63;;;16.10;49.60;;;;;;5018132;28;20515;-43
2023/02/15 11:08:00;;;;;;;25.40;23.20;;;16.20;48.50;;;;;;5019521;28;20866;-44
2023/02/15 11:10:52;;;;;;;24.97;22.80;;;16.40;47.90;;;;;;5019738;28;20413;-45
2023/02/15 11:13:20;;;;;;;24.07;22.13;;;16.20;47.20;;;;;;5019835;28;20475;-45
2023/02/15 11:15:57;;;;;;;24.07;22.07;;;16.10;48.40;;;;;;5020258;28;20773;-49
2023/02/15 11:18:48;;;;;;;24.33;22.33;;;16.30;47.80;;;;;;5020074;28;20421;-47
2023/02/15 11:21:24;;;;;;;24.03;21.80;;;16.70;46.50;;;;;;5019921;28;20440;-49
2023/02/15 11:23:51;;;;;;;24.17;22.03;;;16.40;45.80;;;;;;5020123;28;20481;-46
2023/02/15 11:26:21;;;;;;;24.63;22.53;;;16.40;46.00;;;;;;5019718;28;20469;-48
2023/02/15 11:28:55;;;;;;;25.33;23.13;;;16.40;46.40;;;;;;5019899;28;20475;-49
2023/02/15 11:31:23;;;;;;;25.47;23.27;;;16.40;46.90;;;;;;5019087;28;20536;-49
2023/02/15 11:34:00;;;;;;;23.83;21.77;;;16.60;47.00;;;;;;5019848;28;20471;-45
2023/02/15 11:36:32;;;;;;;24.83;22.73;;;16.60;45.90;;;;;;5018871;28;20845;-50
2023/02/15 11:39:15;;;;;;;25.50;23.40;;;16.30;45.70;;;;;;5019680;28;20413;-51
2023/02/15 11:41:51;;;;;;;26.67;24.47;;;16.60;45.80;;;;;;5020100;28;20443;-51
2023/02/15 11:44:44;;;;;;;25.40;23.23;;;16.90;45.30;;;;;;5019966;28;20812;-48
2023/02/15 11:47:11;;;;;;;26.43;24.13;;;17.30;43.80;;;;;;5018799;28;20464;-48
2023/02/15 11:49:38;;;;;;;24.90;22.80;;;17.00;43.80;;;;;;5019291;28;20418;-49
2023/02/15 11:52:16;;;;;;;26.13;23.93;;;16.70;44.40;;;;;;5019811;28;20713;-50
2023/02/15 11:54:51;;;;;;;26.30;24.13;;;16.80;45.90;;;;;;5019594;28;20462;-49
2023/02/15 11:57:36;;;;;;;25.27;23.27;;;17.30;45.60;;;;;;5019484;28;20503;-48
2023/02/15 12:00:05;;;;;;;26.00;23.80;;;17.50;42.70;;;;;;5020027;28;20425;-44
2023/02/15 12:02:33;;;;;;;23.80;21.90;;;17.50;43.20;;;;;;5019678;28;20417;-46
2023/02/15 12:05:06;;;;;;;24.73;22.63;;;17.20;43.10;;;;;;5019248;28;21006;-49
2023/02/15 12:07:37;;;;;;;26.03;23.80;;;17.60;43.20;;;;;;5021831;28;20978;-47
2023/02/15 12:10:24;;;;;;;24.73;22.73;;;18.00;42.80;;;;;;5023384;28;20413;-46
2023/02/15 12:13:13;;;;;;;25.13;23.13;;;18.20;41.10;;;;;;5023306;28;20550;-50
2023/02/15 12:15:44;;;;;;;24.03;21.90;;;18.10;40.90;;;;;;5021971;28;20704;-48
2023/02/15 12:18:21;;;;;;;23.97;21.97;;;17.80;40.40;;;;;;5021742;28;20750;-47
2023/02/15 12:20:48;;;;;;;24.63;22.63;;;17.80;41.00;;;;;;5023378;28;20535;-51
2023/02/15 12:23:15;;;;;;;24.43;22.43;;;17.90;39.60;;;;;;5023411;28;20911;-44
2023/02/15 12:25:54;;;;;;;26.10;23.93;;;17.30;38.80;;;;;;5021373;28;20492;-51
2023/02/15 12:28:32;;;;;;;25.27;23.13;;;16.90;40.80;;;;;;5022942;28;20962;-51
2023/02/15 12:30:59;;;;;;;25.07;23.03;;;17.00;41.50;;;;;;5022433;28;20432;-48
2023/02/15 12:33:45;;;;;;;24.97;22.77;;;17.10;41.20;;;;;;5022777;28;20912;-50
2023/02/15 12:36:22;;;;;;;23.53;21.60;;;16.90;41.80;;;;;;5023314;28;20500;-46
2023/02/15 12:39:13;;;;;;;25.10;23.00;;;17.20;41.30;;;;;;5022990;28;20409;-47
2023/02/15 12:41:45;;;;;;;24.60;22.53;;;17.00;40.90;;;;;;5023134;28;20431;-49
2023/02/15 12:44:35;;;;;;;24.03;22.10;;;16.60;41.00;;;;;;5022798;28;21172;-48
2023/02/15 12:47:17;;;;;;;22.80;21.00;;;16.70;41.90;;;;;;5022430;28;20461;-49
2023/02/15 12:49:44;;;;;;;24.10;22.20;;;16.80;41.60;;;;;;5023258;28;20436;-46
2023/02/15 12:52:21;;;;;;;25.40;23.20;;;16.80;40.80;;;;;;5022868;28;20456;-44
2023/02/15 12:54:48;;;;;;;24.20;22.10;;;16.30;41.20;;;;;;5022340;28;21043;-48
2023/02/15 12:57:29;;;;;;;25.00;22.80;;;16.10;42.30;;;;;;5022984;28;20417;-53
2023/02/15 13:00:00;;;;;;;25.00;23.00;;;16.20;42.10;;;;;;5022706;28;20424;-47
2023/02/15 13:02:26;;;;;;;26.07;23.97;;;16.10;42.50;;;;;;5021697;28;20757;-45
2023/02/15 13:04:52;;;;;;;24.37;22.27;;;16.00;42.80;;;;;;5022354;28;20447;-50
2023/02/15 13:07:18;;;;;;;25.80;23.50;;;15.80;43.10;;;;;;5022343;28;20213;-46
2023/02/15 13:09:45;;;;;;;25.70;23.40;;;15.70;43.60;;;;;;5022475;28;20453;-45
2023/02/15 13:12:14;;;;;;;25.53;23.30;;;15.80;43.60;;;;;;5022383;28;20465;-46
2023/02/15 13:14:50;;;;;;;25.77;23.47;;;15.90;43.40;;;;;;5022681;28;20413;-48